SEAM/ATF METAR and TAF weather

Enter ICAO airport designator
Station Type Date Time Source
SEAM METAR 2020/09/18 21:00 UTC NOAA

SEAM 182100Z 12008KT 9999 SCT020 18/11 Q1024


Station Type Date Time Source
SEAM Decoded METAR 2020/09/18 21:00 UTC NOAA

Ambato / Chachoan, Ecuador (SEAM) 01-12S 078-34W
Sep 18, 2020 - 05:00 PM EDT / 2020.09.18 2100 UTC
Wind: from the ESE (120 degrees) at 9 MPH (8 KT):0
Visibility: greater than 7 mile(s):0
Sky conditions: partly cloudy
Temperature: 64 F (18 C)
Dew Point: 51 F (11 C)
Relative Humidity: 63%
Pressure (altimeter): 30.24 in. Hg (1024 hPa)
ob: SEAM 182100Z 12008KT 9999 SCT020 18/11 Q1024
cycle: 21

Station Type Date Time Source
SEAM TAF UTC NOAA

Error!

Example: see airport list